createdAt,value
2023-04-16T00:00:32.906Z,99.61
2023-04-16T00:01:32.922Z,98.47
2023-04-16T00:02:32.969Z,99.81
2023-04-16T00:03:33.083Z,104.46
2023-04-16T00:04:33.079Z,103.71
2023-04-16T00:05:32.947Z,101.55
2023-04-16T00:06:32.932Z,104.16
2023-04-16T00:07:32.893Z,101.22
2023-04-16T00:08:32.897Z,102.86
2023-04-16T00:09:32.912Z,103.15
2023-04-16T00:10:32.895Z,103.22
2023-04-16T00:11:32.901Z,102.14
2023-04-16T00:12:32.887Z,98.33
2023-04-16T00:13:32.863Z,100.71
2023-04-16T00:14:32.908Z,100.74
2023-04-16T00:15:32.915Z,101.65
2023-04-16T00:16:32.958Z,99.75
2023-04-16T00:17:32.942Z,101.96
2023-04-16T00:18:32.861Z,98.93
2023-04-16T00:19:32.877Z,100.17
2023-04-16T00:20:32.878Z,99.82
2023-04-16T00:21:32.874Z,106.73
2023-04-16T00:22:32.922Z,102.04
2023-04-16T00:23:32.897Z,102.76
2023-04-16T00:24:32.883Z,102.71
2023-04-16T00:25:32.869Z,105.12
2023-04-16T00:26:32.917Z,102.32
2023-04-16T00:27:32.934Z,105.72
2023-04-16T00:28:32.906Z,100.61
2023-04-16T00:29:32.919Z,103.13
2023-04-16T00:30:32.913Z,102.08
2023-04-16T00:31:32.883Z,103.02
2023-04-16T00:32:33.073Z,105.03
2023-04-16T00:33:32.926Z,101.07
2023-04-16T00:34:32.969Z,103.52
2023-04-16T00:35:33.053Z,102.64
2023-04-16T00:36:32.925Z,100.80
2023-04-16T00:37:33.023Z,103.61
2023-04-16T00:38:32.940Z,104.76
2023-04-16T00:39:32.979Z,104.13
2023-04-16T00:40:32.950Z,102.71
2023-04-16T00:41:32.951Z,102.82
2023-04-16T00:42:32.955Z,102.80
2023-04-16T00:43:32.953Z,104.39
2023-04-16T00:44:32.977Z,107.04
2023-04-16T00:45:32.933Z,104.07
2023-04-16T00:46:32.993Z,102.25
2023-04-16T00:47:33.950Z,105.43
2023-04-16T00:48:33.024Z,103.59
2023-04-16T00:49:32.982Z,104.14
2023-04-16T00:50:32.985Z,104.12
2023-04-16T00:51:32.988Z,102.24
2023-04-16T00:52:33.002Z,104.22
2023-04-16T00:53:32.989Z,100.81
2023-04-16T00:54:32.999Z,102.67
2023-04-16T00:55:33.011Z,106.07
2023-04-16T00:56:33.015Z,106.50
2023-04-16T00:57:33.054Z,103.75
2023-04-16T00:58:33.014Z,100.50
2023-04-16T00:59:33.171Z,103.82
2023-04-16T01:00:33.087Z,104.27
2023-04-16T01:01:33.143Z,106.26
2023-04-16T01:02:33.340Z,104.42
2023-04-16T01:03:33.178Z,104.02
2023-04-16T01:04:33.161Z,104.79
2023-04-16T01:05:33.103Z,104.56
2023-04-16T01:06:33.131Z,104.20
2023-04-16T01:07:33.166Z,106.33
2023-04-16T01:08:33.134Z,105.63
2023-04-16T01:09:33.129Z,101.18
2023-04-16T01:10:33.114Z,103.24
2023-04-16T01:11:33.151Z,104.48
2023-04-16T01:12:33.153Z,103.81
2023-04-16T01:13:33.175Z,103.07
2023-04-16T01:14:33.228Z,106.34
2023-04-16T01:15:33.233Z,105.11
2023-04-16T01:16:33.256Z,109.39
2023-04-16T01:17:33.174Z,104.03
2023-04-16T01:18:33.180Z,101.92
2023-04-16T01:19:33.170Z,104.93
2023-04-16T01:20:33.213Z,99.96
2023-04-16T01:21:33.200Z,106.21
2023-04-16T01:22:33.216Z,105.53
2023-04-16T01:23:33.232Z,104.12
2023-04-16T01:24:33.241Z,101.39
2023-04-16T01:25:33.285Z,105.49
2023-04-16T01:26:33.287Z,105.21
2023-04-16T01:27:33.314Z,103.46
2023-04-16T01:28:33.269Z,104.47
2023-04-16T01:29:33.280Z,105.51
2023-04-16T01:30:33.327Z,102.52
2023-04-16T01:31:33.352Z,105.62
2023-04-16T01:32:33.357Z,105.87
2023-04-16T01:33:33.347Z,105.30
2023-04-16T01:34:33.366Z,106.86
2023-04-16T01:35:33.362Z,106.70
2023-04-16T01:36:33.383Z,108.36
2023-04-16T01:37:33.369Z,103.16
2023-04-16T01:38:33.394Z,108.33
2023-04-16T01:39:33.397Z,104.61
2023-04-16T01:40:33.406Z,106.04
2023-04-16T01:41:33.398Z,103.69
2023-04-16T01:42:33.489Z,103.50
2023-04-16T01:43:33.446Z,106.63
2023-04-16T01:44:33.471Z,107.19
2023-04-16T01:45:33.452Z,105.96
2023-04-16T01:46:33.553Z,107.10
2023-04-16T01:47:33.530Z,106.79
2023-04-16T01:48:33.510Z,107.94
2023-04-16T01:49:33.519Z,106.27
2023-04-16T01:50:33.576Z,106.25
2023-04-16T01:51:33.990Z,105.34
2023-04-16T01:52:33.650Z,104.70
2023-04-16T01:53:34.711Z,109.29
2023-04-16T01:54:33.550Z,110.34
2023-04-16T01:55:33.577Z,105.72
2023-04-16T01:56:33.614Z,109.50
2023-04-16T01:57:33.576Z,109.41
2023-04-16T01:58:33.574Z,107.91
2023-04-16T01:59:33.528Z,107.96
2023-04-16T02:00:33.646Z,105.71
2023-04-16T02:01:33.525Z,105.26
2023-04-16T02:02:33.550Z,105.01
2023-04-16T02:03:33.660Z,108.18
2023-04-16T02:04:33.518Z,106.07
2023-04-16T02:05:33.530Z,106.87
2023-04-16T02:06:33.486Z,108.32
2023-04-16T02:07:33.432Z,104.57
2023-04-16T02:08:33.483Z,106.51
2023-04-16T02:09:33.478Z,107.91
2023-04-16T02:10:33.482Z,107.28
2023-04-16T02:11:33.442Z,108.50
2023-04-16T02:12:33.442Z,103.60
2023-04-16T02:13:33.436Z,107.14
2023-04-16T02:14:33.445Z,104.16
2023-04-16T02:15:33.390Z,106.20
2023-04-16T02:16:33.411Z,106.57
2023-04-16T02:17:33.458Z,107.35
2023-04-16T02:18:33.406Z,106.31
2023-04-16T02:19:33.405Z,106.93
2023-04-16T02:20:33.374Z,109.61
2023-04-16T02:21:33.359Z,107.78
2023-04-16T02:22:33.429Z,107.49
2023-04-16T02:23:33.335Z,108.14
2023-04-16T02:24:33.390Z,107.28
2023-04-16T02:25:33.367Z,104.10
2023-04-16T02:26:33.326Z,105.89
2023-04-16T02:27:33.331Z,110.50
2023-04-16T02:28:33.325Z,106.76
2023-04-16T02:29:33.312Z,108.40
2023-04-16T02:30:33.309Z,105.98
2023-04-16T02:31:33.312Z,106.68
2023-04-16T02:32:33.345Z,108.56
2023-04-16T02:33:33.292Z,106.41
2023-04-16T02:34:33.299Z,106.84
2023-04-16T02:35:33.253Z,107.81
2023-04-16T02:36:33.256Z,106.59
2023-04-16T02:37:33.286Z,106.10
2023-04-16T02:38:33.287Z,107.95
2023-04-16T02:39:33.246Z,112.25
2023-04-16T02:40:33.251Z,108.33
2023-04-16T02:41:33.224Z,109.68
2023-04-16T02:42:33.402Z,106.54
2023-04-16T02:43:33.190Z,104.68
2023-04-16T02:44:33.204Z,107.21
2023-04-16T02:45:33.258Z,110.37
2023-04-16T02:46:33.232Z,104.15
2023-04-16T02:47:33.255Z,109.90
2023-04-16T02:48:33.185Z,104.93
2023-04-16T02:49:33.200Z,106.52
2023-04-16T02:50:33.210Z,110.59
2023-04-16T02:51:33.948Z,103.79
2023-04-16T02:52:33.221Z,105.19
2023-04-16T02:53:33.174Z,107.05
2023-04-16T02:54:33.174Z,108.33
2023-04-16T02:55:33.149Z,106.31
2023-04-16T02:56:33.135Z,106.87
2023-04-16T02:57:33.159Z,107.23
2023-04-16T02:58:33.101Z,110.15
2023-04-16T02:59:33.105Z,106.19
2023-04-16T03:00:33.115Z,106.81
2023-04-16T03:01:33.187Z,111.57
2023-04-16T03:02:33.240Z,106.25
2023-04-16T03:03:33.082Z,110.13
2023-04-16T03:04:33.134Z,107.71
2023-04-16T03:05:33.104Z,110.90
2023-04-16T03:06:33.047Z,111.67
2023-04-16T03:07:33.121Z,112.68
2023-04-16T03:08:33.076Z,107.51
2023-04-16T03:09:33.029Z,111.51
2023-04-16T03:10:33.080Z,106.65
2023-04-16T03:11:33.043Z,109.79
2023-04-16T03:12:33.100Z,111.61
2023-04-16T03:13:33.019Z,107.74
2023-04-16T03:14:33.053Z,105.47
2023-04-16T03:15:33.047Z,105.44
2023-04-16T03:16:33.274Z,111.17
2023-04-16T03:17:33.016Z,110.49
2023-04-16T03:18:32.982Z,109.47
2023-04-16T03:19:32.991Z,108.63
2023-04-16T03:20:32.991Z,108.03
2023-04-16T03:21:32.943Z,108.83
2023-04-16T03:22:33.041Z,108.12
2023-04-16T03:23:32.968Z,106.13
2023-04-16T03:24:33.488Z,109.25
2023-04-16T03:25:32.984Z,113.20
2023-04-16T03:26:32.913Z,108.05
2023-04-16T03:27:32.950Z,107.17
2023-04-16T03:28:32.958Z,110.35
2023-04-16T03:29:32.893Z,107.89
2023-04-16T03:30:32.906Z,107.53
2023-04-16T03:31:32.980Z,106.71
2023-04-16T03:32:32.890Z,110.25
2023-04-16T03:33:32.986Z,110.24
2023-04-16T03:34:32.879Z,110.91
2023-04-16T03:35:32.907Z,107.42
2023-04-16T03:36:32.875Z,110.46
2023-04-16T03:37:32.869Z,109.81
2023-04-16T03:38:32.861Z,108.58
2023-04-16T03:39:32.840Z,112.97
2023-04-16T03:40:32.846Z,112.01
2023-04-16T03:41:32.829Z,109.38
2023-04-16T03:42:32.847Z,111.54
2023-04-16T03:43:32.794Z,108.98
2023-04-16T03:44:32.793Z,107.56
2023-04-16T03:45:32.810Z,108.30
2023-04-16T03:46:32.953Z,110.86
2023-04-16T03:47:32.856Z,111.14
2023-04-16T03:48:32.778Z,108.60
2023-04-16T03:49:32.794Z,108.50
2023-04-16T03:50:32.794Z,107.85
2023-04-16T03:51:33.013Z,110.59
2023-04-16T03:52:32.869Z,111.67
2023-04-16T03:53:32.891Z,111.90
2023-04-16T03:54:32.929Z,109.59
2023-04-16T03:55:32.869Z,110.85
2023-04-16T03:56:32.912Z,113.41
2023-04-16T03:57:32.879Z,109.82
2023-04-16T03:58:32.923Z,110.56
2023-04-16T03:59:32.961Z,109.19
2023-04-16T04:00:32.966Z,111.81
2023-04-16T04:01:32.987Z,106.39
2023-04-16T04:02:33.151Z,110.88
2023-04-16T04:03:33.254Z,110.83
2023-04-16T04:04:33.081Z,110.15
2023-04-16T04:05:33.049Z,109.23
2023-04-16T04:06:33.061Z,113.42
2023-04-16T04:07:33.067Z,111.74
2023-04-16T04:08:33.060Z,109.10
2023-04-16T04:09:33.116Z,112.38
2023-04-16T04:10:33.145Z,107.43
2023-04-16T04:11:33.157Z,111.06
2023-04-16T04:12:33.159Z,111.33
2023-04-16T04:13:33.155Z,109.27
2023-04-16T04:14:33.214Z,109.86
2023-04-16T04:15:33.226Z,110.65
2023-04-16T04:16:33.335Z,108.65
2023-04-16T04:17:33.277Z,112.03
2023-04-16T04:18:33.241Z,109.30
2023-04-16T04:19:33.298Z,110.19
2023-04-16T04:20:33.307Z,108.36
2023-04-16T04:21:33.314Z,106.92
2023-04-16T04:22:33.346Z,109.73
2023-04-16T04:23:33.382Z,108.48
2023-04-16T04:24:33.375Z,111.34
2023-04-16T04:25:33.409Z,108.64
2023-04-16T04:26:33.441Z,109.72
2023-04-16T04:27:33.419Z,113.93
2023-04-16T04:28:33.559Z,108.09
2023-04-16T04:29:33.465Z,109.72
2023-04-16T04:30:33.485Z,112.60
2023-04-16T04:31:33.562Z,108.60
2023-04-16T04:32:33.535Z,114.02
2023-04-16T04:33:33.552Z,112.44
2023-04-16T04:34:33.575Z,111.45
2023-04-16T04:35:33.557Z,113.05
2023-04-16T04:36:33.570Z,112.58
2023-04-16T04:37:33.624Z,114.57
2023-04-16T04:38:34.038Z,113.60
2023-04-16T04:39:33.634Z,112.41
2023-04-16T04:40:33.697Z,109.61
2023-04-16T04:41:33.704Z,110.01
2023-04-16T04:42:33.708Z,109.58
2023-04-16T04:43:33.869Z,110.02
2023-04-16T04:44:33.904Z,113.20
2023-04-16T04:45:33.882Z,111.35
2023-04-16T04:46:33.804Z,111.51
2023-04-16T04:47:33.835Z,107.79
2023-04-16T04:48:33.884Z,111.63
2023-04-16T04:49:34.015Z,113.44
2023-04-16T04:50:33.895Z,113.87
2023-04-16T04:51:33.976Z,112.68
2023-04-16T04:52:33.942Z,112.34
2023-04-16T04:53:33.963Z,110.65
2023-04-16T04:54:34.000Z,113.19
2023-04-16T04:55:34.041Z,111.40
2023-04-16T04:56:34.025Z,112.11
2023-04-16T04:57:34.083Z,108.60
2023-04-16T04:58:34.071Z,114.97
2023-04-16T04:59:34.087Z,114.86
2023-04-16T05:00:34.147Z,112.03
2023-04-16T05:01:34.189Z,115.42
2023-04-16T05:02:34.218Z,112.45
2023-04-16T05:03:34.290Z,116.46
2023-04-16T05:04:34.274Z,112.25
2023-04-16T05:05:34.215Z,110.96
2023-04-16T05:06:34.277Z,110.74
2023-04-16T05:07:34.287Z,112.41
2023-04-16T05:08:34.546Z,111.39
2023-04-16T05:09:34.308Z,114.42
2023-04-16T05:10:34.367Z,109.60
2023-04-16T05:11:34.358Z,111.70
2023-04-16T05:12:34.426Z,111.46
2023-04-16T05:13:34.434Z,114.36
2023-04-16T05:14:34.451Z,111.18
2023-04-16T05:15:34.487Z,117.59
2023-04-16T05:16:34.514Z,107.96
2023-04-16T05:17:34.532Z,112.08
2023-04-16T05:18:34.512Z,113.02
2023-04-16T05:19:34.677Z,113.95
2023-04-16T05:20:34.639Z,115.53
2023-04-16T05:21:34.596Z,117.39
2023-04-16T05:22:34.627Z,112.84
2023-04-16T05:23:34.632Z,113.95
2023-04-16T05:24:34.657Z,112.66
2023-04-16T05:25:34.669Z,113.57
2023-04-16T05:26:34.719Z,110.47
2023-04-16T05:27:34.738Z,111.95
2023-04-16T05:28:35.089Z,111.89
2023-04-16T05:29:34.807Z,115.15
2023-04-16T05:30:35.125Z,114.69
2023-04-16T05:31:34.819Z,111.37
2023-04-16T05:32:34.963Z,114.18
2023-04-16T05:33:34.852Z,110.91
2023-04-16T05:34:34.882Z,112.76
2023-04-16T05:35:34.893Z,115.28
2023-04-16T05:36:34.897Z,111.71
2023-04-16T05:37:34.964Z,115.40
2023-04-16T05:38:34.951Z,114.73
2023-04-16T05:39:34.976Z,115.23
2023-04-16T05:40:35.023Z,115.45
2023-04-16T05:41:35.040Z,115.16
2023-04-16T05:42:35.031Z,110.57
2023-04-16T05:43:35.081Z,108.66
2023-04-16T05:44:35.111Z,113.51
2023-04-16T05:45:35.229Z,113.16
2023-04-16T05:46:35.278Z,115.22
2023-04-16T05:47:35.202Z,109.10
2023-04-16T05:48:35.197Z,114.39
2023-04-16T05:49:35.241Z,116.08
2023-04-16T05:50:35.245Z,113.87
2023-04-16T05:51:35.257Z,117.21
2023-04-16T05:52:35.560Z,111.85
2023-04-16T05:53:35.318Z,116.11
2023-04-16T05:54:35.373Z,115.72
2023-04-16T05:55:35.391Z,115.93
2023-04-16T05:56:35.384Z,111.64
2023-04-16T05:57:35.395Z,114.85
2023-04-16T05:58:35.429Z,114.64
2023-04-16T05:59:35.459Z,114.33
2023-04-16T06:00:35.456Z,115.46
2023-04-16T06:01:35.478Z,112.09
2023-04-16T06:02:35.753Z,114.06
2023-04-16T06:03:35.570Z,112.25
2023-04-16T06:04:35.544Z,120.53
2023-04-16T06:05:35.601Z,111.10
2023-04-16T06:06:35.613Z,114.02
2023-04-16T06:07:35.661Z,114.56
2023-04-16T06:08:35.664Z,116.85
2023-04-16T06:09:35.729Z,116.39
2023-04-16T06:10:35.822Z,115.27
2023-04-16T06:11:36.430Z,113.91
2023-04-16T06:12:35.851Z,112.41
2023-04-16T06:13:35.799Z,114.43
2023-04-16T06:14:35.869Z,117.11
2023-04-16T06:15:35.874Z,112.97
2023-04-16T06:16:35.990Z,117.51
2023-04-16T06:17:35.944Z,115.94
2023-04-16T06:18:35.934Z,114.96
2023-04-16T06:19:35.955Z,115.64
2023-04-16T06:20:35.982Z,114.16
2023-04-16T06:21:36.065Z,117.86
2023-04-16T06:22:36.023Z,113.44
2023-04-16T06:23:36.135Z,117.35
2023-04-16T06:24:36.170Z,115.22
2023-04-16T06:25:36.090Z,114.35
2023-04-16T06:26:36.099Z,115.12
2023-04-16T06:27:36.125Z,117.29
2023-04-16T06:28:36.143Z,118.51
2023-04-16T06:29:41.058Z,119.81
2023-04-16T06:30:37.174Z,118.29
2023-04-16T06:31:36.256Z,120.02
2023-04-16T06:32:36.175Z,114.42
2023-04-16T06:33:36.154Z,115.49
2023-04-16T06:34:36.157Z,114.16
2023-04-16T06:35:36.216Z,115.54
2023-04-16T06:36:36.166Z,112.00
2023-04-16T06:37:36.139Z,114.54
2023-04-16T06:38:36.175Z,112.14
2023-04-16T06:39:36.247Z,114.92
2023-04-16T06:40:36.082Z,116.31
2023-04-16T06:41:36.116Z,118.05
2023-04-16T06:42:36.186Z,115.16
2023-04-16T06:43:36.212Z,116.92
2023-04-16T06:44:36.074Z,113.68
2023-04-16T06:45:36.094Z,117.30
2023-04-16T06:46:36.164Z,111.61
2023-04-16T06:47:36.079Z,117.48
2023-04-16T06:48:36.034Z,116.79
2023-04-16T06:49:36.048Z,115.97
2023-04-16T06:50:36.160Z,116.40
2023-04-16T06:51:36.021Z,116.02
2023-04-16T06:52:36.033Z,112.55
2023-04-16T06:53:36.104Z,116.77
2023-04-16T06:54:36.166Z,115.18
2023-04-16T06:55:36.076Z,118.67
2023-04-16T06:56:36.119Z,117.41
2023-04-16T06:57:37.363Z,119.57
2023-04-16T06:58:36.105Z,117.72
2023-04-16T06:59:36.180Z,113.53
2023-04-16T07:00:36.225Z,116.79
2023-04-16T07:01:36.198Z,112.86
2023-04-16T07:02:36.363Z,115.33
2023-04-16T07:03:36.297Z,111.95
2023-04-16T07:04:36.258Z,114.50
2023-04-16T07:05:36.391Z,111.98
2023-04-16T07:06:36.330Z,115.25
2023-04-16T07:07:36.287Z,112.99
2023-04-16T07:08:36.286Z,115.73
2023-04-16T07:09:36.287Z,115.30
2023-04-16T07:10:36.364Z,113.45
2023-04-16T07:11:36.355Z,117.22
2023-04-16T07:12:36.328Z,115.26
2023-04-16T07:13:36.370Z,117.12
2023-04-16T07:14:36.429Z,113.14
2023-04-16T07:15:36.539Z,114.43
2023-04-16T07:16:36.529Z,113.81
2023-04-16T07:17:36.499Z,113.33
2023-04-16T07:18:36.467Z,118.22
2023-04-16T07:19:36.476Z,111.09
2023-04-16T07:20:36.477Z,114.04
2023-04-16T07:21:36.472Z,111.72
2023-04-16T07:22:36.504Z,110.51
2023-04-16T07:23:36.583Z,111.86
2023-04-16T07:24:36.535Z,114.34
2023-04-16T07:25:36.565Z,114.18
2023-04-16T07:26:36.572Z,114.93
2023-04-16T07:27:36.678Z,113.76
2023-04-16T07:28:36.591Z,113.17
2023-04-16T07:29:36.590Z,113.64
2023-04-16T07:30:36.634Z,114.22
2023-04-16T07:31:36.635Z,115.52
2023-04-16T07:32:37.218Z,117.45
2023-04-16T07:33:36.632Z,113.82
2023-04-16T07:34:36.625Z,115.53
2023-04-16T07:35:36.637Z,116.10
2023-04-16T07:36:36.636Z,115.09
2023-04-16T07:37:36.691Z,115.47
2023-04-16T07:38:36.696Z,112.02
2023-04-16T07:39:36.730Z,113.92
2023-04-16T07:40:36.673Z,114.09
2023-04-16T07:41:36.700Z,117.99
2023-04-16T07:42:36.777Z,114.02
2023-04-16T07:43:36.732Z,111.66
2023-04-16T07:44:36.733Z,118.61
2023-04-16T07:45:36.845Z,113.75
2023-04-16T07:46:46.400Z,112.87
2023-04-16T07:47:37.784Z,113.13
2023-04-16T07:48:36.712Z,113.51
2023-04-16T07:49:36.819Z,113.15
2023-04-16T07:50:36.705Z,113.70
2023-04-16T07:51:36.709Z,115.31
2023-04-16T07:52:36.717Z,114.77
2023-04-16T07:53:36.716Z,114.18
2023-04-16T07:54:36.656Z,115.75
2023-04-16T07:55:36.698Z,118.68
2023-04-16T07:56:36.704Z,115.42
2023-04-16T07:57:36.716Z,113.10
2023-04-16T07:58:36.621Z,116.92
2023-04-16T07:59:36.737Z,115.37
2023-04-16T08:00:36.654Z,114.76
2023-04-16T08:01:36.601Z,113.67
2023-04-16T08:02:36.756Z,116.85
2023-04-16T08:03:36.808Z,116.02
2023-04-16T08:04:36.870Z,114.28
2023-04-16T08:05:36.630Z,115.14
2023-04-16T08:06:36.595Z,113.41
2023-04-16T08:07:36.652Z,116.97
2023-04-16T08:08:36.592Z,116.55
2023-04-16T08:09:36.589Z,114.84
2023-04-16T08:10:36.606Z,118.42
2023-04-16T08:11:36.580Z,114.21
2023-04-16T08:12:36.665Z,116.68
2023-04-16T08:13:36.561Z,115.20
2023-04-16T08:14:36.533Z,114.44
2023-04-16T08:15:37.108Z,114.61
2023-04-16T08:16:36.554Z,116.20
2023-04-16T08:17:36.583Z,114.94
2023-04-16T08:18:36.504Z,113.18
2023-04-16T08:19:36.528Z,116.77
2023-04-16T08:20:36.501Z,115.65
2023-04-16T08:21:36.509Z,115.60
2023-04-16T08:22:36.511Z,114.91
2023-04-16T08:23:36.478Z,115.77
2023-04-16T08:24:36.448Z,114.21
2023-04-16T08:25:36.600Z,117.43
2023-04-16T08:26:36.811Z,116.52
2023-04-16T08:27:37.000Z,121.29
2023-04-16T08:28:37.143Z,117.40
2023-04-16T08:29:37.242Z,115.26
2023-04-16T08:30:52.162Z,119.07
2023-04-16T08:31:37.375Z,119.62
2023-04-16T08:32:37.376Z,120.07
2023-04-16T08:33:37.344Z,120.64
2023-04-16T08:34:37.487Z,120.31
2023-04-16T08:35:37.363Z,119.97
2023-04-16T08:36:37.281Z,119.11
2023-04-16T08:37:37.338Z,119.35
2023-04-16T08:38:37.265Z,119.84
2023-04-16T08:39:37.326Z,118.36
2023-04-16T08:40:37.284Z,118.97
2023-04-16T08:41:37.328Z,119.67
2023-04-16T08:42:37.352Z,116.29
2023-04-16T08:43:37.349Z,115.38
2023-04-16T08:44:37.392Z,118.85
2023-04-16T08:45:37.278Z,119.68
2023-04-16T08:46:37.476Z,116.02
2023-04-16T08:47:37.312Z,120.39
2023-04-16T08:48:37.211Z,118.93
2023-04-16T08:49:37.268Z,119.55
2023-04-16T08:50:37.296Z,118.54
2023-04-16T08:51:37.203Z,117.12
2023-04-16T08:52:37.193Z,116.17
2023-04-16T08:53:37.202Z,118.17
2023-04-16T08:54:37.200Z,120.22
2023-04-16T08:55:37.175Z,116.84
2023-04-16T08:56:37.187Z,116.89
2023-04-16T08:57:37.351Z,117.23
2023-04-16T08:58:37.157Z,115.84
2023-04-16T08:59:37.132Z,116.85
2023-04-16T09:00:37.118Z,120.16
2023-04-16T09:01:37.154Z,120.47
2023-04-16T09:02:37.427Z,118.36
2023-04-16T09:03:37.318Z,121.15
2023-04-16T09:04:37.190Z,121.90
2023-04-16T09:05:37.108Z,120.00
2023-04-16T09:06:37.086Z,118.34
2023-04-16T09:07:37.105Z,119.23
2023-04-16T09:08:37.098Z,122.51
2023-04-16T09:09:37.061Z,120.55
2023-04-16T09:10:37.045Z,120.39
2023-04-16T09:11:37.146Z,119.74
2023-04-16T09:12:37.088Z,122.39
2023-04-16T09:13:37.058Z,120.61
2023-04-16T09:14:37.040Z,121.98
2023-04-16T09:15:37.074Z,115.42
2023-04-16T09:16:37.083Z,119.53
2023-04-16T09:17:37.068Z,120.76
2023-04-16T09:18:37.021Z,120.45
2023-04-16T09:19:37.071Z,115.67
2023-04-16T09:20:37.036Z,119.72
2023-04-16T09:21:37.176Z,120.29
2023-04-16T09:22:36.999Z,117.49
2023-04-16T09:23:37.003Z,120.89
2023-04-16T09:24:36.999Z,119.02
2023-04-16T09:25:37.008Z,118.82
2023-04-16T09:26:37.117Z,119.57
2023-04-16T09:27:37.051Z,122.05
2023-04-16T09:28:37.099Z,119.11
2023-04-16T09:29:37.154Z,119.59
2023-04-16T09:30:37.243Z,119.05
2023-04-16T09:31:37.361Z,120.68
2023-04-16T09:32:37.460Z,117.16
2023-04-16T09:33:37.468Z,118.43
2023-04-16T09:34:37.515Z,116.23
2023-04-16T09:35:37.582Z,118.17
2023-04-16T09:36:37.683Z,116.74
2023-04-16T09:37:37.712Z,117.71
2023-04-16T09:38:37.704Z,117.64
2023-04-16T09:39:37.805Z,121.35
2023-04-16T09:40:37.912Z,118.21
2023-04-16T09:41:37.893Z,117.67
2023-04-16T09:42:37.987Z,118.32
2023-04-16T09:43:38.067Z,117.71
2023-04-16T09:44:38.090Z,119.47
2023-04-16T09:45:38.202Z,120.51
2023-04-16T09:46:38.318Z,120.11
2023-04-16T09:47:38.347Z,116.97
2023-04-16T09:48:38.365Z,119.37
2023-04-16T09:49:38.514Z,118.31
2023-04-16T09:50:38.540Z,120.41
2023-04-16T09:51:38.636Z,119.85
2023-04-16T09:52:38.618Z,119.78
2023-04-16T09:53:38.661Z,118.25
2023-04-16T09:54:38.815Z,117.67
2023-04-16T09:55:38.862Z,115.21
2023-04-16T09:56:38.761Z,119.64
2023-04-16T09:57:38.795Z,118.22
2023-04-16T09:58:38.890Z,116.21
2023-04-16T09:59:38.950Z,119.79
2023-04-16T10:00:43.472Z,119.83
2023-04-16T10:01:38.999Z,119.93
2023-04-16T10:02:39.426Z,120.03
2023-04-16T10:03:39.317Z,119.44
2023-04-16T10:04:39.177Z,118.71
2023-04-16T10:05:38.951Z,117.36
2023-04-16T10:06:38.932Z,118.98
2023-04-16T10:07:38.956Z,118.92
2023-04-16T10:08:38.937Z,122.32
2023-04-16T10:09:38.924Z,120.67
2023-04-16T10:10:38.959Z,119.04
2023-04-16T10:11:38.960Z,118.13
2023-04-16T10:12:38.994Z,119.35
2023-04-16T10:13:38.948Z,119.03
2023-04-16T10:14:38.945Z,117.71
2023-04-16T10:15:38.875Z,119.42
2023-04-16T10:16:39.024Z,121.00
2023-04-16T10:17:38.893Z,119.79
2023-04-16T10:18:38.949Z,117.54
2023-04-16T10:19:38.959Z,121.21
2023-04-16T10:20:39.025Z,122.04
2023-04-16T10:21:39.099Z,121.72
2023-04-16T10:22:39.084Z,119.86
2023-04-16T10:23:39.086Z,122.28
2023-04-16T10:24:39.256Z,117.90
2023-04-16T10:25:39.204Z,119.00
2023-04-16T10:26:39.267Z,120.00
2023-04-16T10:27:39.278Z,120.43
2023-04-16T10:28:39.276Z,117.86
2023-04-16T10:29:39.320Z,119.26
2023-04-16T10:30:39.450Z,117.49
2023-04-16T10:31:39.397Z,119.32
2023-04-16T10:32:39.439Z,118.90
2023-04-16T10:33:39.483Z,119.53
2023-04-16T10:34:39.453Z,116.32
2023-04-16T10:35:39.499Z,113.46
2023-04-16T10:36:39.552Z,118.18
2023-04-16T10:37:39.555Z,119.30
2023-04-16T10:38:39.662Z,123.66
2023-04-16T10:39:39.646Z,123.86
2023-04-16T10:40:39.675Z,124.90
2023-04-16T10:41:39.697Z,117.69
2023-04-16T10:42:39.697Z,122.51
2023-04-16T10:43:39.910Z,118.83
2023-04-16T10:44:41.415Z,119.01
2023-04-16T10:45:40.143Z,124.64
2023-04-16T10:46:39.779Z,118.38
2023-04-16T10:47:39.848Z,122.56
2023-04-16T10:48:49.951Z,120.29
2023-04-16T10:49:40.720Z,120.59
2023-04-16T10:50:39.726Z,121.00
2023-04-16T10:51:39.721Z,121.06
2023-04-16T10:52:39.681Z,121.48
2023-04-16T10:53:39.734Z,119.13
2023-04-16T10:54:39.699Z,118.51
2023-04-16T10:55:39.673Z,118.94
2023-04-16T10:56:39.687Z,120.15
2023-04-16T10:57:39.790Z,122.56
2023-04-16T10:58:39.616Z,123.52
2023-04-16T10:59:39.663Z,123.73
2023-04-16T11:00:39.621Z,126.50
2023-04-16T11:01:39.657Z,118.79
2023-04-16T11:02:39.768Z,120.81
2023-04-16T11:03:39.734Z,123.88
2023-04-16T11:04:39.772Z,122.62
2023-04-16T11:05:39.641Z,121.03
2023-04-16T11:06:39.669Z,115.70
2023-04-16T11:07:39.732Z,119.88
2023-04-16T11:08:53.271Z,122.78
2023-04-16T11:09:40.688Z,122.92
2023-04-16T11:10:39.718Z,120.65
2023-04-16T11:11:39.721Z,122.94
2023-04-16T11:12:39.873Z,122.46
2023-04-16T11:13:39.685Z,123.60
2023-04-16T11:14:39.629Z,120.29
2023-04-16T11:15:39.722Z,121.27
2023-04-16T11:16:39.689Z,122.96
2023-04-16T11:17:39.689Z,118.26
2023-04-16T11:18:47.689Z,116.98
2023-04-16T11:19:40.687Z,117.34
2023-04-16T11:20:39.624Z,117.82
2023-04-16T11:21:39.618Z,116.21
2023-04-16T11:22:39.640Z,118.63
2023-04-16T11:23:39.621Z,118.71
2023-04-16T11:24:39.606Z,120.94
2023-04-16T11:25:39.635Z,119.30
2023-04-16T11:26:39.576Z,120.02
2023-04-16T11:27:39.593Z,119.96
2023-04-16T11:28:39.596Z,119.30
2023-04-16T11:29:39.603Z,119.43
2023-04-16T11:30:39.601Z,118.14
2023-04-16T11:31:40.296Z,121.26
2023-04-16T11:32:39.616Z,120.56
2023-04-16T11:33:39.535Z,117.97
2023-04-16T11:34:39.570Z,118.73
2023-04-16T11:35:39.629Z,123.08
2023-04-16T11:36:39.636Z,119.75
2023-04-16T11:37:39.659Z,121.62
2023-04-16T11:38:39.684Z,124.29
2023-04-16T11:39:39.730Z,121.01
2023-04-16T11:40:39.779Z,122.29
2023-04-16T11:41:39.778Z,118.17
2023-04-16T11:42:39.916Z,119.77
2023-04-16T11:43:39.891Z,122.53
2023-04-16T11:44:39.887Z,121.92
2023-04-16T11:45:39.922Z,120.55
2023-04-16T11:46:40.008Z,119.48
2023-04-16T11:47:39.975Z,121.54
2023-04-16T11:48:40.054Z,117.19
2023-04-16T11:49:40.046Z,119.12
2023-04-16T11:50:40.072Z,123.53
2023-04-16T11:51:40.084Z,119.50
2023-04-16T11:52:40.106Z,123.24
2023-04-16T11:53:40.194Z,124.08
2023-04-16T11:54:40.161Z,121.48
2023-04-16T11:55:40.217Z,119.38
2023-04-16T11:56:40.217Z,124.06
2023-04-16T11:57:40.227Z,120.19
2023-04-16T11:58:43.089Z,121.52
2023-04-16T12:00:03.038Z,125.93
2023-04-16T12:00:41.278Z,126.22
2023-04-16T12:01:40.267Z,125.23
2023-04-16T12:02:40.514Z,124.94
2023-04-16T12:03:40.534Z,123.39
2023-04-16T12:04:40.312Z,124.82
2023-04-16T12:05:40.234Z,122.06
2023-04-16T12:06:40.172Z,122.80
2023-04-16T12:07:40.278Z,120.73
2023-04-16T12:08:40.204Z,123.03
2023-04-16T12:09:40.929Z,120.87
2023-04-16T12:10:40.319Z,120.08
2023-04-16T12:11:40.210Z,123.29
2023-04-16T12:12:40.194Z,120.16
2023-04-16T12:13:40.402Z,121.09
2023-04-16T12:14:40.313Z,120.02
2023-04-16T12:15:40.152Z,122.00
2023-04-16T12:16:40.207Z,123.68
2023-04-16T12:17:40.286Z,123.69
2023-04-16T12:18:40.165Z,124.81
2023-04-16T12:19:40.155Z,126.66
2023-04-16T12:20:40.137Z,127.28
2023-04-16T12:21:40.198Z,120.68
2023-04-16T12:22:40.197Z,120.10
2023-04-16T12:23:40.254Z,120.50
2023-04-16T12:24:40.202Z,122.59
2023-04-16T12:25:40.203Z,123.06
2023-04-16T12:26:40.218Z,123.65
2023-04-16T12:27:40.291Z,124.74
2023-04-16T12:28:40.340Z,123.15